createdAt,value
2018-07-28T00:00:50.682Z,63.11
2018-07-28T00:01:59.337Z,62.92
2018-07-28T00:03:07.993Z,63.01
2018-07-28T00:04:16.635Z,62.92
2018-07-28T00:05:25.292Z,62.92
2018-07-28T00:06:33.938Z,63.56
2018-07-28T00:07:42.860Z,63.4
2018-07-28T00:08:51.772Z,63.76
2018-07-28T00:10:00.430Z,63.79
2018-07-28T00:11:09.077Z,62.92
2018-07-28T00:12:17.737Z,62.98
2018-07-28T00:13:26.648Z,62.88
2018-07-28T00:14:35.309Z,62.88
2018-07-28T00:15:43.958Z,62.92
2018-07-28T00:16:52.626Z,63.01
2018-07-28T00:18:01.804Z,63.01
2018-07-28T00:19:10.450Z,63.01
2018-07-28T00:20:19.099Z,62.88
2018-07-28T00:21:28.014Z,63.18
2018-07-28T00:22:36.673Z,62.92
2018-07-28T00:23:45.320Z,63.08
2018-07-28T00:24:53.976Z,62.98
2018-07-28T00:26:02.618Z,62.92
2018-07-28T00:27:11.280Z,62.72
2018-07-28T00:28:19.929Z,62.79
2018-07-28T00:29:28.849Z,63.18
2018-07-28T00:30:37.756Z,62.79
2018-07-28T00:31:46.415Z,62.98
2018-07-28T00:32:55.063Z,62.88
2018-07-28T00:34:03.716Z,63.46
2018-07-28T00:35:12.363Z,63.37
2018-07-28T00:36:21.016Z,63.27
2018-07-28T00:37:29.668Z,64.24
2018-07-28T00:38:38.320Z,64.62
2018-07-28T00:39:46.974Z,65.11
2018-07-28T00:40:55.620Z,65.69
2018-07-28T00:42:04.535Z,65.88
2018-07-28T00:43:13.187Z,65.3
2018-07-28T00:44:21.843Z,65.3
2018-07-28T00:45:30.494Z,65.3
2018-07-28T00:46:39.146Z,65.27
2018-07-28T00:47:48.067Z,65.88
2018-07-28T00:48:56.726Z,66.27
2018-07-28T00:50:05.376Z,65.56
2018-07-28T00:51:14.026Z,66.24
2018-07-28T00:52:22.676Z,66.24
2018-07-28T00:53:31.330Z,66.14
2018-07-28T00:54:39.979Z,65.85
2018-07-28T00:55:48.628Z,66.14
2018-07-28T00:56:57.279Z,66.14
2018-07-28T00:58:05.944Z,65.85
2018-07-28T00:59:14.600Z,66.05
2018-07-28T01:00:23.254Z,65.85
2018-07-28T01:01:31.904Z,66.05
2018-07-28T01:02:40.553Z,66.14
2018-07-28T01:03:49.205Z,66.53
2018-07-28T01:04:58.118Z,66.72
2018-07-28T01:06:07.308Z,66.14
2018-07-28T01:07:15.957Z,66.24
2018-07-28T01:08:24.612Z,66.05
2018-07-28T01:09:33.263Z,66.33
2018-07-28T01:10:42.175Z,66.14
2018-07-28T01:11:50.825Z,66.14
2018-07-28T01:12:59.478Z,66.24
2018-07-28T01:14:08.127Z,66.43
2018-07-28T01:15:16.782Z,66.43
2018-07-28T01:16:25.432Z,66.24
2018-07-28T01:17:34.081Z,66.24
2018-07-28T01:18:42.733Z,66.53
2018-07-28T01:19:51.385Z,66.33
2018-07-28T01:21:00.040Z,66.33
2018-07-28T01:22:08.681Z,65.75
2018-07-28T01:23:17.332Z,66.24
2018-07-28T01:24:25.983Z,66.24
2018-07-28T01:25:34.639Z,66.43
2018-07-28T01:26:43.285Z,66.33
2018-07-28T01:27:51.938Z,66.43
2018-07-28T01:29:00.589Z,66.43
2018-07-28T01:30:09.243Z,66.43
2018-07-28T01:31:17.890Z,65.95
2018-07-28T01:32:26.547Z,66.33
2018-07-28T01:33:35.200Z,66.53
2018-07-28T01:34:43.853Z,66.91
2018-07-28T01:35:52.502Z,66.53
2018-07-28T01:37:01.156Z,67.01
2018-07-28T01:38:09.798Z,66.33
2018-07-28T01:39:18.716Z,67.11
2018-07-28T01:40:27.362Z,66.91
2018-07-28T01:41:36.022Z,66.33
2018-07-28T01:42:44.666Z,67.11
2018-07-28T01:43:53.320Z,67.4
2018-07-28T01:45:02.231Z,67.3
2018-07-28T01:46:10.885Z,67.49
2018-07-28T01:47:19.533Z,67.4
2018-07-28T01:48:28.188Z,67.11
2018-07-28T01:49:36.839Z,67.01
2018-07-28T01:50:45.489Z,67.21
2018-07-28T01:51:54.140Z,66.78
2018-07-28T01:53:02.793Z,66.88
2018-07-28T01:54:11.446Z,66.88
2018-07-28T01:55:20.098Z,67.08
2018-07-28T01:56:28.747Z,66.98
2018-07-28T01:57:37.393Z,67.94
2018-07-28T01:58:46.051Z,67.85
2018-07-28T01:59:54.963Z,68.43
2018-07-28T02:01:03.879Z,68.62
2018-07-28T02:02:12.525Z,68.72
2018-07-28T02:03:21.180Z,68.91
2018-07-28T02:04:29.830Z,68.91
2018-07-28T02:05:38.751Z,69.49
2018-07-28T02:06:47.398Z,69.3
2018-07-28T02:07:56.052Z,69.65
2018-07-28T02:09:04.966Z,69.65
2018-07-28T02:10:13.621Z,69.84
2018-07-28T02:11:22.274Z,70.14
2018-07-28T02:12:30.918Z,69.94
2018-07-28T02:13:39.571Z,70.14
2018-07-28T02:14:48.219Z,69.74
2018-07-28T02:15:56.874Z,69.84
2018-07-28T02:17:05.787Z,70.23
2018-07-28T02:18:14.440Z,70.62
2018-07-28T02:19:23.091Z,70.32
2018-07-28T02:20:31.746Z,70.42
2018-07-28T02:21:40.660Z,70.42
2018-07-28T02:22:49.315Z,70.23
2018-07-28T02:23:57.963Z,70.42
2018-07-28T02:25:06.620Z,70.14
2018-07-28T02:26:15.273Z,69.94
2018-07-28T02:27:23.925Z,70.9
2018-07-28T02:28:32.573Z,71.48
2018-07-28T02:29:41.221Z,71.39
2018-07-28T02:30:49.885Z,71.2
2018-07-28T02:31:59.062Z,71.3
2018-07-28T02:33:07.718Z,71.36
2018-07-28T02:34:16.361Z,71.3
2018-07-28T02:35:25.026Z,72.42
2018-07-28T02:36:34.195Z,72.61
2018-07-28T02:37:43.122Z,72.61
2018-07-28T02:38:52.041Z,72.42
2018-07-28T02:40:00.974Z,73.09
2018-07-28T02:41:09.618Z,72.61
2018-07-28T02:42:18.290Z,72.71
2018-07-28T02:43:26.935Z,72.42
2018-07-28T02:44:35.861Z,72.52
2018-07-28T02:45:44.780Z,72.58
2018-07-28T02:46:53.435Z,72.67
2018-07-28T02:48:02.099Z,72.77
2018-07-28T02:49:11.009Z,72.28
2018-07-28T02:50:19.661Z,72.86
2018-07-28T02:51:28.314Z,72.48
2018-07-28T02:52:36.968Z,72.38
2018-07-28T02:53:45.616Z,73.25
2018-07-28T02:54:54.803Z,73.73
2018-07-28T02:56:03.974Z,73.54
2018-07-28T02:57:12.644Z,74.12
2018-07-28T02:58:21.818Z,74.21
2018-07-28T02:59:30.471Z,73.93
2018-07-28T03:00:39.396Z,73.73
2018-07-28T03:01:48.081Z,75.09
2018-07-28T03:02:56.721Z,74.51
2018-07-28T03:04:05.627Z,74.41
2018-07-28T03:05:14.274Z,74.51
2018-07-28T03:06:23.451Z,74.69
2018-07-28T03:07:32.383Z,74.41
2018-07-28T03:08:41.034Z,73.73
2018-07-28T03:09:50.243Z,73.93
2018-07-28T03:10:58.888Z,73.63
2018-07-28T03:12:07.809Z,73.44
2018-07-28T03:13:16.462Z,73.93
2018-07-28T03:14:25.120Z,74.12
2018-07-28T03:15:33.775Z,74.51
2018-07-28T03:16:42.693Z,74.6
2018-07-28T03:17:51.347Z,74.41
2018-07-28T03:19:00.270Z,73.93
2018-07-28T03:20:08.916Z,73.63
2018-07-28T03:21:17.573Z,74.6
2018-07-28T03:22:26.231Z,75.57
2018-07-28T03:23:35.138Z,76.53
2018-07-28T03:24:44.059Z,76.01
2018-07-28T03:25:52.961Z,76.3
2018-07-28T03:27:01.630Z,76.1
2018-07-28T03:28:10.547Z,76.3
2018-07-28T03:29:19.200Z,75.92
2018-07-28T03:30:27.845Z,76.78
2018-07-28T03:31:36.504Z,76.78
2018-07-28T03:32:45.416Z,77.07
2018-07-28T03:33:54.071Z,76.5
2018-07-28T03:35:02.717Z,76.68
2018-07-28T03:36:11.367Z,76.98
2018-07-28T03:37:20.016Z,77.23
2018-07-28T03:38:28.670Z,76.84
2018-07-28T03:39:37.320Z,77.13
2018-07-28T03:40:45.970Z,76.75
2018-07-28T03:41:54.619Z,76.93
2018-07-28T03:43:03.266Z,77.23
2018-07-28T03:44:11.924Z,77.42
2018-07-28T03:45:20.568Z,77.51
2018-07-28T03:46:29.484Z,77.33
2018-07-28T03:47:38.388Z,77.61
2018-07-28T03:48:47.042Z,77.33
2018-07-28T03:49:55.691Z,78.09
2018-07-28T03:51:04.603Z,77.9
2018-07-28T03:52:13.250Z,78
2018-07-28T03:53:21.903Z,78
2018-07-28T03:54:30.549Z,77.81
2018-07-28T03:55:39.201Z,78
2018-07-28T03:56:47.846Z,77.61
2018-07-28T03:57:56.497Z,77.81
2018-07-28T03:59:05.687Z,78.58
2018-07-28T04:00:14.338Z,77.61
2018-07-28T04:01:23.251Z,77.61
2018-07-28T04:02:31.897Z,78.48
2018-07-28T04:03:40.806Z,78.58
2018-07-28T04:04:49.730Z,78.09
2018-07-28T04:05:58.384Z,78.86
2018-07-28T04:07:07.028Z,78.86
2018-07-28T04:08:15.680Z,78.48
2018-07-28T04:09:24.596Z,79.06
2018-07-28T04:10:33.259Z,79.35
2018-07-28T04:11:41.904Z,79.44
2018-07-28T04:12:50.556Z,78.67
2018-07-28T04:13:59.202Z,78.38
2018-07-28T04:15:07.858Z,78.67
2018-07-28T04:16:16.778Z,78.67
2018-07-28T04:17:25.430Z,78.67
2018-07-28T04:18:34.077Z,79.35
2018-07-28T04:19:42.726Z,80.12
2018-07-28T04:20:51.382Z,79.93
2018-07-28T04:22:00.033Z,78.96
2018-07-28T04:23:08.682Z,79.74
2018-07-28T04:24:17.325Z,79.35
2018-07-28T04:25:25.985Z,79.83
2018-07-28T04:26:34.888Z,80.22
2018-07-28T04:27:43.545Z,79.74
2018-07-28T04:28:52.186Z,80.22
2018-07-28T04:30:01.114Z,80.22
2018-07-28T04:31:09.756Z,79.74
2018-07-28T04:32:18.665Z,80.22
2018-07-28T04:33:27.346Z,79.74
2018-07-28T04:34:35.955Z,80.02
2018-07-28T04:35:44.614Z,80.41
2018-07-28T04:36:53.524Z,80.69
2018-07-28T04:38:02.446Z,80.99
2018-07-28T04:39:11.346Z,80.37
2018-07-28T04:40:20.004Z,79.89
2018-07-28T04:41:28.650Z,80.18
2018-07-28T04:42:37.586Z,80.89
2018-07-28T04:43:46.484Z,80.69
2018-07-28T04:44:55.139Z,80.31
2018-07-28T04:46:03.785Z,80.41
2018-07-28T04:47:12.442Z,80.41
2018-07-28T04:48:21.084Z,80.79
2018-07-28T04:49:29.735Z,80.6
2018-07-28T04:50:38.387Z,80.89
2018-07-28T04:51:47.302Z,81.57
2018-07-28T04:52:55.952Z,81.57
2018-07-28T04:54:04.861Z,80.89
2018-07-28T04:55:13.511Z,80.6
2018-07-28T04:56:22.150Z,80.02
2018-07-28T04:57:30.809Z,79.64
2018-07-28T04:58:39.719Z,79.93
2018-07-28T04:59:48.373Z,78.67
2018-07-28T05:00:57.013Z,78.38
2018-07-28T05:02:05.673Z,78.96
2018-07-28T05:03:14.318Z,78.03
2018-07-28T05:04:22.973Z,77.75
2018-07-28T05:05:31.878Z,77.46
2018-07-28T05:06:40.537Z,77.17
2018-07-28T05:07:49.186Z,79.39
2018-07-28T05:08:57.836Z,79.29
2018-07-28T05:10:06.749Z,79.19
2018-07-28T05:11:15.663Z,79.97
2018-07-28T05:12:24.315Z,79.97
2018-07-28T05:13:32.966Z,80.16
2018-07-28T05:14:41.620Z,79.83
2018-07-28T05:15:50.284Z,79.83
2018-07-28T05:16:58.918Z,80.41
2018-07-28T05:18:07.566Z,80.22
2018-07-28T05:19:16.223Z,80.41
2018-07-28T05:20:24.911Z,81.09
2018-07-28T05:21:33.521Z,81.27
2018-07-28T05:22:42.427Z,80.79
2018-07-28T05:23:51.454Z,81.47
2018-07-28T05:25:00.343Z,81.37
2018-07-28T05:26:09.251Z,81.27
2018-07-28T05:27:17.904Z,81.76
2018-07-28T05:28:26.545Z,81.85
2018-07-28T05:29:35.241Z,81.85
2018-07-28T05:30:43.851Z,81.76
2018-07-28T05:31:52.501Z,81.47
2018-07-28T05:33:01.152Z,81.81
2018-07-28T05:34:09.796Z,82.05
2018-07-28T05:35:18.452Z,81.72
2018-07-28T05:36:27.099Z,82.01
2018-07-28T05:37:35.761Z,81.62
2018-07-28T05:38:44.938Z,81.57
2018-07-28T05:39:53.591Z,81.81
2018-07-28T05:41:02.770Z,82.05
2018-07-28T05:42:11.430Z,81.52
2018-07-28T05:43:20.071Z,81.91
2018-07-28T05:44:28.723Z,81.62
2018-07-28T05:45:37.372Z,81.43
2018-07-28T05:46:46.030Z,82.34
2018-07-28T05:47:54.675Z,82.34
2018-07-28T05:49:03.321Z,83.11
2018-07-28T05:50:12.331Z,82.39
2018-07-28T05:51:20.879Z,82.49
2018-07-28T05:52:29.545Z,82.01
2018-07-28T05:53:38.185Z,82.29
2018-07-28T05:54:46.833Z,82.2
2018-07-28T05:55:55.473Z,82.01
2018-07-28T05:57:04.134Z,82.14
2018-07-28T05:58:12.783Z,82.05
2018-07-28T05:59:21.440Z,81.85
2018-07-28T06:00:30.080Z,81.47
2018-07-28T06:01:38.738Z,81.18
2018-07-28T06:02:47.413Z,80.79
2018-07-28T06:03:56.380Z,79.87
2018-07-28T06:05:05.022Z,79
2018-07-28T06:06:13.677Z,78.52
2018-07-28T06:07:22.336Z,77.84
2018-07-28T06:08:30.990Z,77.01
2018-07-28T06:09:39.641Z,77.11
2018-07-28T06:10:48.591Z,76.92
2018-07-28T06:11:57.193Z,76.24
2018-07-28T06:13:05.845Z,76.15
2018-07-28T06:14:14.557Z,76.28
2018-07-28T06:15:23.144Z,75.22
2018-07-28T06:16:31.798Z,75.22
2018-07-28T06:17:40.708Z,74.83
2018-07-28T06:18:49.367Z,75.22
2018-07-28T06:19:58.271Z,75.12
2018-07-28T06:21:06.924Z,74.77
2018-07-28T06:22:15.575Z,74.19
2018-07-28T06:23:24.493Z,73.52
2018-07-28T06:24:33.147Z,73.61
2018-07-28T06:25:41.794Z,73.52
2018-07-28T06:26:50.444Z,72.55
2018-07-28T06:27:59.090Z,71.97
2018-07-28T06:29:07.756Z,71.97
2018-07-28T06:30:16.670Z,71.91
2018-07-28T06:31:25.321Z,71.52
2018-07-28T06:32:34.287Z,71.52
2018-07-28T06:33:42.943Z,71.72
2018-07-28T06:34:51.596Z,71.62
2018-07-28T06:36:00.244Z,70.84
2018-07-28T06:37:08.890Z,70.84
2018-07-28T06:38:17.548Z,70.94
2018-07-28T06:39:26.248Z,70.1
2018-07-28T06:40:34.852Z,70.01
2018-07-28T06:41:43.497Z,70.3
2018-07-28T06:42:52.150Z,69.82
2018-07-28T06:44:00.812Z,69.82
2018-07-28T06:45:09.455Z,69.56
2018-07-28T06:46:18.114Z,69.66
2018-07-28T06:47:26.757Z,68.69
2018-07-28T06:48:35.407Z,68.79
2018-07-28T06:49:44.058Z,68.01
2018-07-28T06:50:52.715Z,67.82
2018-07-28T06:52:01.361Z,67.91
2018-07-28T06:53:10.014Z,67.72
2018-07-28T06:54:18.933Z,67.14
2018-07-28T06:55:27.589Z,67.18
2018-07-28T06:56:36.509Z,66.85
2018-07-28T06:57:45.163Z,66.98
2018-07-28T06:58:53.816Z,66.3
2018-07-28T07:00:02.471Z,65.82
2018-07-28T07:01:11.117Z,66.2
2018-07-28T07:02:19.769Z,65.92
2018-07-28T07:03:28.420Z,65.72
2018-07-28T07:04:37.369Z,65.14
2018-07-28T07:05:46.324Z,65.37
2018-07-28T07:06:54.977Z,65.56
2018-07-28T07:08:03.632Z,65.08
2018-07-28T07:09:12.281Z,64.89
2018-07-28T07:10:20.936Z,65.37
2018-07-28T07:11:29.588Z,65.08
2018-07-28T07:12:38.242Z,64.98
2018-07-28T07:13:46.887Z,64.4
2018-07-28T07:14:55.543Z,63.37
2018-07-28T07:16:04.199Z,63.27
2018-07-28T07:17:13.120Z,63.27
2018-07-28T07:18:21.768Z,62.69
2018-07-28T07:19:30.421Z,62.69
2018-07-28T07:20:39.073Z,62.59
2018-07-28T07:21:47.992Z,61.52
2018-07-28T07:22:56.901Z,61.04
2018-07-28T07:24:05.562Z,61.33
2018-07-28T07:25:14.212Z,61.33
2018-07-28T07:26:23.135Z,61.85
2018-07-28T07:27:31.770Z,61.26
2018-07-28T07:28:40.430Z,61.26
2018-07-28T07:29:49.075Z,61.55
2018-07-28T07:30:57.735Z,61.46
2018-07-28T07:32:06.377Z,61.85
2018-07-28T07:33:15.040Z,61.46
2018-07-28T07:34:23.684Z,61.94
2018-07-28T07:35:32.339Z,61.65
2018-07-28T07:36:40.986Z,61.26
2018-07-28T07:37:49.637Z,60.97
2018-07-28T07:38:58.559Z,60.97
2018-07-28T07:40:07.221Z,60.61
2018-07-28T07:41:16.144Z,60.71
2018-07-28T07:42:24.786Z,60.91
2018-07-28T07:43:33.441Z,60.42
2018-07-28T07:44:42.087Z,61
2018-07-28T07:45:51.015Z,61.29
2018-07-28T07:46:59.658Z,60.81
2018-07-28T07:48:08.312Z,60.91
2018-07-28T07:49:16.962Z,60.64
2018-07-28T07:50:25.625Z,59.87
2018-07-28T07:51:34.269Z,60.16
2018-07-28T07:52:42.923Z,59.97
2018-07-28T07:53:51.601Z,59.87
2018-07-28T07:55:00.236Z,59.67
2018-07-28T07:56:08.883Z,59.58
2018-07-28T07:57:17.535Z,59.87
2018-07-28T07:58:26.182Z,59.97
2018-07-28T07:59:34.835Z,60.94
2018-07-28T08:00:43.496Z,60.64
2018-07-28T08:01:52.142Z,60.55
2018-07-28T08:03:01.064Z,60.16
2018-07-28T08:04:09.708Z,59.97
2018-07-28T08:05:18.370Z,60.06
2018-07-28T08:06:27.082Z,60.09
2018-07-28T08:07:35.691Z,59.8
2018-07-28T08:08:44.864Z,59.22
2018-07-28T08:09:53.527Z,59.54
2018-07-28T08:11:02.198Z,59.31
2018-07-28T08:12:11.099Z,59.31
2018-07-28T08:13:19.742Z,59.8
2018-07-28T08:14:28.400Z,60.02
2018-07-28T08:15:37.060Z,59.74
2018-07-28T08:16:45.714Z,59.74
2018-07-28T08:17:54.369Z,59.92
2018-07-28T08:19:03.013Z,59.54
2018-07-28T08:20:11.668Z,59.83
2018-07-28T08:21:20.320Z,59.92
2018-07-28T08:22:28.979Z,60.22
2018-07-28T08:23:37.628Z,60.71
2018-07-28T08:24:46.545Z,60.9
2018-07-28T08:25:55.463Z,60.61
2018-07-28T08:27:04.380Z,60.12
2018-07-28T08:28:13.291Z,59.86
2018-07-28T08:29:21.952Z,60.35
2018-07-28T08:30:30.602Z,59.57
2018-07-28T08:31:39.261Z,59.95
2018-07-28T08:32:47.910Z,59.57
2018-07-28T08:33:56.829Z,59.86
2018-07-28T08:35:05.749Z,59.95
2018-07-28T08:36:14.399Z,60.05
2018-07-28T08:37:23.056Z,60.08
2018-07-28T08:38:31.712Z,60.08
2018-07-28T08:39:40.364Z,59.99
2018-07-28T08:40:49.010Z,60.96
2018-07-28T08:41:57.669Z,60.44
2018-07-28T08:43:06.325Z,61.02
2018-07-28T08:44:14.982Z,61.02
2018-07-28T08:45:23.629Z,61.71
2018-07-28T08:46:32.286Z,61.51
2018-07-28T08:47:40.936Z,62.55
2018-07-28T08:48:49.612Z,62.74
2018-07-28T08:49:58.242Z,62.91
2018-07-28T08:51:06.900Z,63.59
2018-07-28T08:52:15.552Z,64.07
2018-07-28T08:53:24.216Z,64.56
2018-07-28T08:54:32.886Z,64.46
2018-07-28T08:55:41.515Z,64.26
2018-07-28T08:56:50.170Z,65.11
2018-07-28T08:57:58.822Z,65.33
2018-07-28T08:59:07.480Z,65.5
2018-07-28T09:00:16.137Z,66.27
2018-07-28T09:01:24.793Z,66.86
2018-07-28T09:02:33.450Z,67.44
2018-07-28T09:03:42.371Z,69.09
2018-07-28T09:04:51.020Z,69.18
2018-07-28T09:05:59.751Z,70.45
2018-07-28T09:07:08.721Z,70.61
2018-07-28T09:08:17.378Z,71.96
2018-07-28T09:09:26.029Z,71.96
2018-07-28T09:10:35.007Z,72.06
2018-07-28T09:11:43.596Z,73.28
2018-07-28T09:12:52.245Z,74.74
2018-07-28T09:14:00.903Z,74.64
2018-07-28T09:15:09.549Z,73.96
2018-07-28T09:16:18.237Z,74.84
2018-07-28T09:17:26.853Z,75.61
2018-07-28T09:18:35.510Z,75.71
2018-07-28T09:19:44.164Z,76.29
2018-07-28T09:20:52.817Z,77.7
2018-07-28T09:22:01.473Z,78
2018-07-28T09:23:10.136Z,78.29
2018-07-28T09:24:18.775Z,78
2018-07-28T09:25:27.434Z,77.32
2018-07-28T09:26:36.086Z,78.97
2018-07-28T09:27:44.734Z,79.06
2018-07-28T09:28:53.659Z,79.06
2018-07-28T09:30:02.570Z,78
2018-07-28T09:31:11.217Z,78
2018-07-28T09:32:20.148Z,77.42
2018-07-28T09:33:28.795Z,77.16
2018-07-28T09:34:37.447Z,76.68
2018-07-28T09:35:46.093Z,76.58
2018-07-28T09:36:55.060Z,77.06
2018-07-28T09:38:03.681Z,77.84
2018-07-28T09:39:12.338Z,77.16
2018-07-28T09:40:21.248Z,77.26
2018-07-28T09:41:29.908Z,76.87
2018-07-28T09:42:38.556Z,77.26
2018-07-28T09:43:47.210Z,76.68
2018-07-28T09:44:55.860Z,76.39
2018-07-28T09:46:04.781Z,76.23
2018-07-28T09:47:13.437Z,75.07
2018-07-28T09:48:22.093Z,75.55
2018-07-28T09:49:30.754Z,75.55
2018-07-28T09:50:39.406Z,75.07
2018-07-28T09:51:48.058Z,74.39
2018-07-28T09:52:56.711Z,74
2018-07-28T09:54:05.370Z,74.1
2018-07-28T09:55:14.019Z,73.9
2018-07-28T09:56:22.677Z,74.16
2018-07-28T09:57:31.329Z,73.96
2018-07-28T09:58:39.989Z,74.35
2018-07-28T09:59:48.639Z,75.42
2018-07-28T10:00:57.291Z,75.61
2018-07-28T10:02:05.940Z,75.23
2018-07-28T10:03:14.924Z,75.13
2018-07-28T10:04:23.574Z,75.32
2018-07-28T10:05:32.246Z,75.96
2018-07-28T10:06:41.223Z,75.13
2018-07-28T10:07:50.138Z,76.54
2018-07-28T10:08:58.797Z,76.45
2018-07-28T10:10:07.448Z,76.25
2018-07-28T10:11:16.101Z,75.87
2018-07-28T10:12:25.012Z,77.51
2018-07-28T10:13:33.669Z,77.7
2018-07-28T10:14:42.323Z,78.19
2018-07-28T10:15:50.975Z,78.58
2018-07-28T10:16:59.887Z,79.06
2018-07-28T10:18:08.550Z,79.25
2018-07-28T10:19:17.463Z,78.05
2018-07-28T10:20:26.116Z,79.5
2018-07-28T10:21:34.766Z,80.87
2018-07-28T10:22:43.419Z,81.05
2018-07-28T10:23:52.071Z,81.73
2018-07-28T10:25:00.726Z,81.64
2018-07-28T10:26:09.642Z,81.93
2018-07-28T10:27:18.286Z,81.73
2018-07-28T10:28:26.946Z,81.5
2018-07-28T10:29:36.139Z,81.98
2018-07-28T10:30:44.802Z,81.98
2018-07-28T10:31:53.444Z,82.08
2018-07-28T10:33:02.101Z,81.89
2018-07-28T10:34:10.749Z,81.6
2018-07-28T10:35:19.409Z,81.79
2018-07-28T10:36:28.103Z,81.7
2018-07-28T10:37:36.705Z,83.73
2018-07-28T10:38:45.356Z,83.73
2018-07-28T10:39:54.016Z,83.4
2018-07-28T10:41:02.668Z,84.75
2018-07-28T10:42:11.315Z,85.72
2018-07-28T10:43:19.964Z,86.69
2018-07-28T10:44:28.874Z,86.69
2018-07-28T10:45:37.545Z,88.33
2018-07-28T10:46:46.641Z,89.06
2018-07-28T10:47:55.572Z,89.35
2018-07-28T10:49:04.216Z,89.64
2018-07-28T10:50:12.873Z,89.15
2018-07-28T10:51:21.520Z,89.83
2018-07-28T10:52:30.175Z,89.35
2018-07-28T10:53:38.817Z,88.67
2018-07-28T10:54:47.754Z,87.81
2018-07-28T10:55:56.401Z,87.32
2018-07-28T10:57:05.059Z,87.23
2018-07-28T10:58:13.718Z,87.17
2018-07-28T10:59:22.904Z,87.32
2018-07-28T11:00:31.632Z,87.36
2018-07-28T11:01:40.211Z,87.17
2018-07-28T11:02:48.863Z,86.69
2018-07-28T11:03:57.506Z,86.44
2018-07-28T11:05:06.164Z,86.54
2018-07-28T11:06:14.817Z,86.54
2018-07-28T11:07:23.480Z,86.44
2018-07-28T11:08:32.123Z,85.66
2018-07-28T11:09:40.781Z,86.63
2018-07-28T11:10:49.429Z,86.73
2018-07-28T11:11:58.091Z,86.63
2018-07-28T11:13:06.733Z,85.9
2018-07-28T11:14:15.388Z,85.71
2018-07-28T11:15:24.042Z,85.31
2018-07-28T11:16:32.695Z,86
2018-07-28T11:17:41.346Z,86.09
2018-07-28T11:18:50.281Z,85.9
2018-07-28T11:19:58.918Z,84.74
2018-07-28T11:21:07.562Z,86
2018-07-28T11:22:16.218Z,85.31
2018-07-28T11:23:24.874Z,85.31
2018-07-28T11:24:33.529Z,85.94
2018-07-28T11:25:42.175Z,85.65
2018-07-28T11:26:51.115Z,85.85
2018-07-28T11:27:59.766Z,85.65
2018-07-28T11:29:08.460Z,84.82
2018-07-28T11:30:17.068Z,81.13
2018-07-28T11:31:25.724Z,82.01
2018-07-28T11:32:34.376Z,81.43
2018-07-28T11:33:43.031Z,80.85
2018-07-28T11:34:51.684Z,81.62
2018-07-28T11:36:00.340Z,80.3
2018-07-28T11:37:09.255Z,80.01
2018-07-28T11:38:17.907Z,79.18
2018-07-28T11:39:26.831Z,78.89
2018-07-28T11:40:35.480Z,75.68
2018-07-28T11:41:44.404Z,77.29
2018-07-28T11:42:53.059Z,79.72
2018-07-28T11:44:01.722Z,79.14
2018-07-28T11:45:10.640Z,78.31
2018-07-28T11:46:19.296Z,77.14
2018-07-28T11:47:27.951Z,77.43
2018-07-28T11:48:36.608Z,79.18
2018-07-28T11:49:45.259Z,78.94
2018-07-28T11:50:53.915Z,78.99
2018-07-28T11:52:02.568Z,78.79
2018-07-28T11:53:11.227Z,78.79
2018-07-28T11:54:19.879Z,77.82
2018-07-28T11:55:28.824Z,77.29
2018-07-28T11:56:37.474Z,78.27
2018-07-28T11:57:46.129Z,77.78
2018-07-28T11:58:54.786Z,77.59
2018-07-28T12:00:03.438Z,76.23
2018-07-28T12:01:12.092Z,76.75
2018-07-28T12:02:20.743Z,76.95
2018-07-28T12:03:29.673Z,75.01
2018-07-28T12:04:38.322Z,75.4
2018-07-28T12:05:46.974Z,74.43
2018-07-28T12:06:55.623Z,74.43
2018-07-28T12:08:04.285Z,75.4
2018-07-28T12:09:12.941Z,72.42
2018-07-28T12:10:21.593Z,74.07
2018-07-28T12:11:30.243Z,73.3
2018-07-28T12:12:38.978Z,71.94
2018-07-28T12:13:47.553Z,72.71
2018-07-28T12:14:56.210Z,75.59
2018-07-28T12:16:05.133Z,73.36
2018-07-28T12:17:13.779Z,72.49
2018-07-28T12:18:22.939Z,72.49
2018-07-28T12:19:31.556Z,73.84
2018-07-28T12:20:40.218Z,72.61
2018-07-28T12:21:48.859Z,74.52
2018-07-28T12:22:57.520Z,71.74
2018-07-28T12:24:06.597Z,73.3
2018-07-28T12:25:15.093Z,72.61
2018-07-28T12:26:23.739Z,74.37
2018-07-28T12:27:32.656Z,72.71
2018-07-28T12:28:41.308Z,72.77
2018-07-28T12:29:49.971Z,73.94
2018-07-28T12:30:58.624Z,74.75
2018-07-28T12:32:07.268Z,73.78
2018-07-28T12:33:15.919Z,70.77
2018-07-28T12:34:24.572Z,70.09
2018-07-28T12:35:33.235Z,70.22
2018-07-28T12:36:41.882Z,69.54
2018-07-28T12:37:50.540Z,68.77
2018-07-28T12:38:59.183Z,68.28
2018-07-28T12:40:07.845Z,69.29
2018-07-28T12:41:16.497Z,68.28
2018-07-28T12:42:25.155Z,69.06
2018-07-28T12:43:33.799Z,69.84
2018-07-28T12:44:42.460Z,70.32
2018-07-28T12:45:51.113Z,69.74
2018-07-28T12:46:59.768Z,69.84
2018-07-28T12:48:08.413Z,68.38
2018-07-28T12:49:17.073Z,69.06
2018-07-28T12:50:25.998Z,66.14
2018-07-28T12:51:34.918Z,66.05
2018-07-28T12:52:43.575Z,66.53
2018-07-28T12:53:52.245Z,67.31
2018-07-28T12:55:01.148Z,68.96
2018-07-28T12:56:09.817Z,68.77
2018-07-28T12:57:19.098Z,67.15
2018-07-28T12:58:27.742Z,67.24
2018-07-28T12:59:36.399Z,66.66
2018-07-28T13:00:45.054Z,66.66
2018-07-28T13:01:53.720Z,65.89
2018-07-28T13:03:02.361Z,65.89
2018-07-28T13:04:11.015Z,65.79
2018-07-28T13:05:19.670Z,65.4
2018-07-28T13:06:28.333Z,65.79
2018-07-28T13:07:36.986Z,66.37
2018-07-28T13:08:45.639Z,67.54
2018-07-28T13:09:54.346Z,66.27
2018-07-28T13:11:03.215Z,65.69
2018-07-28T13:12:11.878Z,64.62
2018-07-28T13:13:20.535Z,64.62
2018-07-28T13:14:29.186Z,64.56
2018-07-28T13:15:37.857Z,64.07
2018-07-28T13:16:46.504Z,63.32
2018-07-28T13:17:55.179Z,62.06
2018-07-28T13:19:03.816Z,63.23
2018-07-28T13:20:12.478Z,61.77
2018-07-28T13:21:21.125Z,62.13
2018-07-28T13:22:29.781Z,63.59
2018-07-28T13:23:38.739Z,64.46
2018-07-28T13:24:47.360Z,64.72
2018-07-28T13:25:56.015Z,64.04
2018-07-28T13:27:04.665Z,65.3
2018-07-28T13:28:13.579Z,64.43
2018-07-28T13:29:22.232Z,66.27
2018-07-28T13:30:30.895Z,65.98
2018-07-28T13:31:39.542Z,65.79
2018-07-28T13:32:48.199Z,63.45
2018-07-28T13:33:56.845Z,62.58
2018-07-28T13:35:05.510Z,64.23
2018-07-28T13:36:14.161Z,63.59
2018-07-28T13:37:23.085Z,63.29
2018-07-28T13:38:31.736Z,65.43
2018-07-28T13:39:40.400Z,61.44
2018-07-28T13:40:49.049Z,63.87
2018-07-28T13:41:57.708Z,61.83
2018-07-28T13:43:06.352Z,60.96
2018-07-28T13:44:15.006Z,61.64
2018-07-28T13:45:23.667Z,59.5
2018-07-28T13:46:32.320Z,59.89
2018-07-28T13:47:40.982Z,59.31
2018-07-28T13:48:49.624Z,60.77
2018-07-28T13:49:58.283Z,61.74
2018-07-28T13:51:06.935Z,61.18
2018-07-28T13:52:15.597Z,61.96
2018-07-28T13:53:24.801Z,62.26
2018-07-28T13:54:33.432Z,61.87
2018-07-28T13:55:42.083Z,60.11
2018-07-28T13:56:51.009Z,60.31
2018-07-28T13:57:59.653Z,59.23
2018-07-28T13:59:08.355Z,59.92
2018-07-28T14:00:16.964Z,60.79
2018-07-28T14:01:25.624Z,59.23
2018-07-28T14:02:34.585Z,59.36
2018-07-28T14:03:43.211Z,59.33
2018-07-28T14:04:52.125Z,59.14
2018-07-28T14:06:00.819Z,59.23
2018-07-28T14:07:10.476Z,59.23
2018-07-28T14:08:19.124Z,60.11
2018-07-28T14:09:27.784Z,60.99
2018-07-28T14:10:36.429Z,59.43
2018-07-28T14:11:45.095Z,58.95
2018-07-28T14:12:53.746Z,59.82
2018-07-28T14:14:02.400Z,60.7
2018-07-28T14:15:11.356Z,59.33
2018-07-28T14:16:20.265Z,59.92
2018-07-28T14:17:28.919Z,59.23
2018-07-28T14:18:37.595Z,59.23
2018-07-28T14:19:46.793Z,59.23
2018-07-28T14:20:55.447Z,59.63
2018-07-28T14:22:04.107Z,60.31
2018-07-28T14:23:13.033Z,59.14
2018-07-28T14:24:21.689Z,58.95
2018-07-28T14:25:30.339Z,60.02
2018-07-28T14:26:38.994Z,59.23
2018-07-28T14:27:47.649Z,58.56
2018-07-28T14:28:56.308Z,59.05
2018-07-28T14:30:05.219Z,59.63
2018-07-28T14:31:14.138Z,59.95
2018-07-28T14:32:22.796Z,60.21
2018-07-28T14:33:31.454Z,59.36
2018-07-28T14:34:40.106Z,57.81
2018-07-28T14:35:48.762Z,57.61
2018-07-28T14:36:57.414Z,56.93
2018-07-28T14:38:06.075Z,56.45
2018-07-28T14:39:14.727Z,57.45
2018-07-28T14:40:23.382Z,55.99
2018-07-28T14:41:32.038Z,57.81
2018-07-28T14:42:40.689Z,54.79
2018-07-28T14:43:49.371Z,55.96
2018-07-28T14:44:58.004Z,55.96
2018-07-28T14:46:06.924Z,55.86
2018-07-28T14:47:15.570Z,57.22
2018-07-28T14:48:24.231Z,57.22